Carthage Lake, Illinois
Current Conditions -  °F | °C
As of 6:25 AM on Monday 24 Nov 2014 (Local Time) from KBRL Reporting Station
Light Snow Light Snow  
Wind Chill: 23°   Ceiling: 1200
Heat Index: 33°   Visibility: 5mi
Dew Point: 31°   Wind: 16mph
Humidity: 92%   Direction: 290°WNW
Pressure: 29.35"   Gusts: 26mph
Location:  40.7646°N, 91.0498°W
Report Text: KBRL 241225Z AUTO 29014G23KT 5SM -SN BR BKN012 OVC017 01/M01 A2935 RMK AO2 PK WND 30027/1210 P0000 T00061006 $
Loading
Personal Weather Stations






























Interactive Weather Map New forecast layout! Learn more

10-Day Weather Forecast

Advertisements
Track Severe Weather on mobile